MET2565 - Kansas City to Amarillo

Bombardier Dash-8-Q200
837AG
1 hr 45 mins
414 nm
Scheduled - Daily

Bid/PiRep Status

Bid was submitted on Oct 02 2016.

PiRep # 73559: Approved by Dave Nichols on October 5th, 2016 3:32 UTC

Departure

Departing from
Kansas City (MCI)
Departure gate
Scheduled Departure
GMT 1710
Local 1210
METAR KMCI 270053Z 05004KT 10SM FEW060 BKN110 19/16 A3012 RMK AO2 RAE05 SLP193 P0000 T01890161
TAF KMCI 262333Z 2700/2724 VRB05KT P6SM VCTS BKN050CB FM270200 10006KT P6SM SCT060 FM271100 14005KT 5SM BR SKC FM271300 15009KT P6SM SCT250

Arrival

Arriving at
Amarillo (AMA)
Arrival gate
A2
Scheduled Arrival
GMT 1855
Local 1355
METAR KAMA 270053Z 15010KT 10SM CLR 27/13 A3011 RMK AO2 SLP152 T02670133
TAF KAMA 262320Z 2700/2724 16015KT P6SM SCT060 FM270100 16008KT P6SM VCSH BKN250 TEMPO 2705/2708 5SM -TSRA BKN030CB FM270800 20010KT P6SM SCT250 FM271700 20012G22KT P6SM SKC

Route Map

Planning Resources

FRACA,ICT,GAG, KAMA
WLDCT2 V12 PNH
WLDCT2.ICT J26 PNH
KMCI KENTN ICT ZENDA GAG PNH KAMA
FRACA ICT GAG PNH KAMA
Route:
OFP Layout:
Units:
Detailed Navlog:
ETOPS Planning:
Plan Stepclimbs:
Runway Analysis:
Include NOTAMS:
FIR NOTAMS:
Flight Maps:

Return Flights

MET2564
Bombardier Dash-8-Q200
1305 GMT
MET2566
Bombardier Dash-8-Q200
1915 GMT
MET2568
Bombardier Dash-8-Q200
0015 GMT

Popularity

Hub Current Bids PiReps this month Total PiReps
KMCI 0 0 13
KLAX 0 0 1
KBOS 0 0 0